createdAt,value
2019-03-09T00:01:18.320Z,9.25
2019-03-09T00:03:47.511Z,9.17
2019-03-09T00:06:17.017Z,9.21
2019-03-09T00:08:46.217Z,9.24
2019-03-09T00:11:15.414Z,9.24
2019-03-09T00:13:44.597Z,9.19
2019-03-09T00:16:13.806Z,9.21
2019-03-09T00:18:43.025Z,9.21
2019-03-09T00:21:12.204Z,9.22
2019-03-09T00:23:49.141Z,9.20
2019-03-09T00:26:32.232Z,9.21
2019-03-09T00:29:05.974Z,9.19
2019-03-09T00:31:39.901Z,9.18
2019-03-09T00:34:09.087Z,9.23
2019-03-09T00:36:38.310Z,9.26
2019-03-09T00:39:07.522Z,9.24
2019-03-09T00:41:36.690Z,9.29
2019-03-09T00:44:05.886Z,9.29
2019-03-09T00:46:35.065Z,9.25
2019-03-09T00:49:04.259Z,9.28
2019-03-09T00:51:33.496Z,9.28
2019-03-09T00:54:02.659Z,9.20
2019-03-09T00:56:31.860Z,9.15
2019-03-09T00:59:01.058Z,9.16
2019-03-09T01:01:30.240Z,9.13
2019-03-09T01:03:59.453Z,9.12
2019-03-09T01:06:28.634Z,9.18
2019-03-09T01:08:57.844Z,9.18
2019-03-09T01:11:27.030Z,9.23
2019-03-09T01:13:56.239Z,9.21
2019-03-09T01:16:25.415Z,9.20
2019-03-09T01:18:54.625Z,9.13
2019-03-09T01:21:23.808Z,9.20
2019-03-09T01:23:53.025Z,9.25
2019-03-09T01:26:22.201Z,9.24
2019-03-09T01:28:51.407Z,9.27
2019-03-09T01:31:20.649Z,9.23
2019-03-09T01:33:49.870Z,9.25
2019-03-09T01:36:19.048Z,9.28
2019-03-09T01:38:48.263Z,9.26
2019-03-09T01:41:17.439Z,9.23
2019-03-09T01:43:46.632Z,9.25
2019-03-09T01:46:15.814Z,9.23
2019-03-09T01:48:45.012Z,9.25
2019-03-09T01:51:14.254Z,9.22
2019-03-09T01:53:43.451Z,9.14
2019-03-09T01:56:12.649Z,9.21
2019-03-09T01:58:41.883Z,9.27
2019-03-09T02:01:11.068Z,9.25
2019-03-09T02:03:40.266Z,9.19
2019-03-09T02:06:09.458Z,9.24
2019-03-09T02:08:38.732Z,9.26
2019-03-09T02:11:07.908Z,9.21
2019-03-09T02:13:37.128Z,9.15
2019-03-09T02:16:06.306Z,9.06
2019-03-09T02:18:35.500Z,9.05
2019-03-09T02:21:04.682Z,9.04
2019-03-09T02:23:33.900Z,8.96
2019-03-09T02:26:03.100Z,8.94
2019-03-09T02:28:32.294Z,8.91
2019-03-09T02:31:01.495Z,8.82
2019-03-09T02:33:30.711Z,8.77
2019-03-09T02:35:59.887Z,8.66
2019-03-09T02:38:30.741Z,8.57
2019-03-09T02:40:59.937Z,8.53
2019-03-09T02:43:29.154Z,8.37
2019-03-09T02:45:58.519Z,8.26
2019-03-09T02:48:27.722Z,8.11
2019-03-09T02:50:56.916Z,8.07
2019-03-09T02:53:26.664Z,7.98
2019-03-09T02:55:55.841Z,7.86
2019-03-09T02:58:25.020Z,7.80
2019-03-09T03:01:12.256Z,7.83
2019-03-09T03:03:41.457Z,7.80
2019-03-09T03:06:10.621Z,7.77
2019-03-09T03:08:39.818Z,7.78
2019-03-09T03:11:09.009Z,7.75
2019-03-09T03:13:38.195Z,7.72
2019-03-09T03:16:07.403Z,7.66
2019-03-09T03:18:36.631Z,7.65
2019-03-09T03:21:05.827Z,7.50
2019-03-09T03:23:34.994Z,7.51
2019-03-09T03:26:04.195Z,7.45
2019-03-09T03:28:33.375Z,7.49
2019-03-09T03:31:02.634Z,7.49
2019-03-09T03:33:31.928Z,7.48
2019-03-09T03:36:01.105Z,7.48
2019-03-09T03:38:30.296Z,7.50
2019-03-09T03:40:59.520Z,7.48
2019-03-09T03:43:28.709Z,7.40
2019-03-09T03:45:57.924Z,7.40
2019-03-09T03:48:27.089Z,7.42
2019-03-09T03:50:56.287Z,7.41
2019-03-09T03:53:25.472Z,7.39
2019-03-09T03:55:54.667Z,7.34
2019-03-09T03:58:23.855Z,7.42
2019-03-09T04:00:53.102Z,7.41
2019-03-09T04:03:22.272Z,7.36
2019-03-09T04:05:51.488Z,7.30
2019-03-09T04:08:20.672Z,7.34
2019-03-09T04:10:49.869Z,7.36
2019-03-09T04:13:19.044Z,7.33
2019-03-09T04:15:48.241Z,7.31
2019-03-09T04:18:17.417Z,7.29
2019-03-09T04:20:46.622Z,7.22
2019-03-09T04:23:15.803Z,7.24
2019-03-09T04:25:44.998Z,7.24
2019-03-09T04:28:14.253Z,7.21
2019-03-09T04:30:43.452Z,7.28
2019-03-09T04:33:12.655Z,7.27
2019-03-09T04:35:41.853Z,7.31
2019-03-09T04:38:11.028Z,7.32
2019-03-09T04:40:40.258Z,7.40
2019-03-09T04:43:09.431Z,7.41
2019-03-09T04:45:38.634Z,7.41
2019-03-09T04:48:07.808Z,7.39
2019-03-09T04:50:37.011Z,7.36
2019-03-09T04:53:06.211Z,7.40
2019-03-09T04:55:35.404Z,7.46
2019-03-09T04:58:04.590Z,7.50
2019-03-09T05:00:33.780Z,7.52
2019-03-09T05:03:02.957Z,7.53
2019-03-09T05:05:32.150Z,7.54
2019-03-09T05:08:04.592Z,7.54
2019-03-09T05:10:37.579Z,7.56
2019-03-09T05:13:09.900Z,7.48
2019-03-09T05:15:39.103Z,7.57
2019-03-09T05:18:08.339Z,7.65
2019-03-09T05:20:37.560Z,7.73
2019-03-09T05:23:06.740Z,7.75
2019-03-09T05:25:35.946Z,7.76
2019-03-09T05:28:05.120Z,7.78
2019-03-09T05:30:48.056Z,7.76
2019-03-09T05:33:17.245Z,7.77
2019-03-09T05:35:46.479Z,7.76
2019-03-09T05:38:15.670Z,7.76
2019-03-09T05:40:44.867Z,7.81
2019-03-09T05:43:14.049Z,7.84
2019-03-09T05:45:43.267Z,7.88
2019-03-09T05:48:12.431Z,7.85
2019-03-09T05:50:41.619Z,7.91
2019-03-09T05:53:13.590Z,7.91
2019-03-09T05:55:42.795Z,7.95
2019-03-09T05:58:11.981Z,7.94
2019-03-09T06:00:41.645Z,7.99
2019-03-09T06:03:10.895Z,8.01
2019-03-09T06:05:42.142Z,8.00
2019-03-09T06:08:11.326Z,8.01
2019-03-09T06:10:40.533Z,8.02
2019-03-09T06:13:09.701Z,8.07
2019-03-09T06:15:38.903Z,8.08
2019-03-09T06:18:08.078Z,8.07
2019-03-09T06:20:37.273Z,8.07
2019-03-09T06:23:06.469Z,8.09
2019-03-09T06:25:35.737Z,8.10
2019-03-09T06:28:05.013Z,8.14
2019-03-09T06:30:34.204Z,8.11
2019-03-09T06:33:23.402Z,8.20
2019-03-09T06:36:04.784Z,8.20
2019-03-09T06:38:42.678Z,8.16
2019-03-09T06:41:30.293Z,8.17
2019-03-09T06:43:59.468Z,8.20
2019-03-09T06:46:28.662Z,8.22
2019-03-09T06:48:57.846Z,8.23
2019-03-09T06:51:27.040Z,8.31
2019-03-09T06:53:56.236Z,8.32
2019-03-09T06:56:25.436Z,8.32
2019-03-09T06:58:54.665Z,8.36
2019-03-09T07:01:23.895Z,8.37
2019-03-09T07:03:53.060Z,8.40
2019-03-09T07:06:22.262Z,8.50
2019-03-09T07:08:51.460Z,8.49
2019-03-09T07:11:20.689Z,8.48
2019-03-09T07:13:53.075Z,8.55
2019-03-09T07:16:20.763Z,8.63
2019-03-09T07:18:49.933Z,8.68
2019-03-09T07:21:19.132Z,8.67
2019-03-09T07:23:48.307Z,8.74
2019-03-09T07:26:17.600Z,8.65
2019-03-09T07:28:46.800Z,8.70
2019-03-09T07:31:15.998Z,8.70
2019-03-09T07:33:45.179Z,8.81
2019-03-09T07:36:14.363Z,8.82
2019-03-09T07:38:43.556Z,8.84
2019-03-09T07:41:12.755Z,8.81
2019-03-09T07:43:41.963Z,8.83
2019-03-09T07:46:11.152Z,8.80
2019-03-09T07:48:41.001Z,8.77
2019-03-09T07:51:10.222Z,8.77
2019-03-09T07:53:39.445Z,8.81
2019-03-09T07:56:08.609Z,8.84
2019-03-09T07:58:37.805Z,8.92
2019-03-09T08:01:07.069Z,8.91
2019-03-09T08:03:36.267Z,8.99
2019-03-09T08:06:05.453Z,9.02
2019-03-09T08:08:34.660Z,8.98
2019-03-09T08:11:03.849Z,9.06
2019-03-09T08:13:33.073Z,9.05
2019-03-09T08:16:02.268Z,9.10
2019-03-09T08:18:31.463Z,9.16
2019-03-09T08:21:00.752Z,9.16
2019-03-09T08:23:29.954Z,9.17
2019-03-09T08:25:59.158Z,9.18
2019-03-09T08:28:28.359Z,9.21
2019-03-09T08:30:57.545Z,9.24
2019-03-09T08:33:26.786Z,9.25
2019-03-09T08:35:59.298Z,9.25
2019-03-09T08:38:27.633Z,9.27
2019-03-09T08:40:57.035Z,9.36
2019-03-09T08:43:26.234Z,9.47
2019-03-09T08:45:55.508Z,9.60
2019-03-09T08:48:24.711Z,9.69
2019-03-09T08:50:53.984Z,9.74
2019-03-09T08:53:23.194Z,9.83
2019-03-09T08:55:52.351Z,9.79
2019-03-09T08:58:21.548Z,9.80
2019-03-09T09:00:50.953Z,9.77
2019-03-09T09:03:20.150Z,9.79
2019-03-09T09:05:49.325Z,9.79
2019-03-09T09:08:18.544Z,9.86
2019-03-09T09:10:47.729Z,9.91
2019-03-09T09:13:16.952Z,9.96
2019-03-09T09:15:46.144Z,9.99
2019-03-09T09:18:15.342Z,10.02
2019-03-09T09:20:44.555Z,10.01
2019-03-09T09:23:13.754Z,9.96
2019-03-09T09:25:42.955Z,9.96
2019-03-09T09:28:12.165Z,9.94
2019-03-09T09:30:41.511Z,9.96
2019-03-09T09:33:10.703Z,10.01
2019-03-09T09:35:39.885Z,10.09
2019-03-09T09:38:09.093Z,10.17
2019-03-09T09:40:43.293Z,10.16
2019-03-09T09:43:12.501Z,10.20
2019-03-09T09:45:41.685Z,10.23
2019-03-09T09:48:11.056Z,10.30
2019-03-09T09:50:40.264Z,10.30
2019-03-09T09:53:09.478Z,10.25
2019-03-09T09:55:38.689Z,10.26
2019-03-09T09:58:07.899Z,10.21
2019-03-09T10:00:37.089Z,10.29
2019-03-09T10:03:06.286Z,10.31
2019-03-09T10:05:35.487Z,10.35
2019-03-09T10:08:04.665Z,10.45
2019-03-09T10:10:33.896Z,10.55
2019-03-09T10:13:03.136Z,10.73
2019-03-09T10:15:33.276Z,10.88
2019-03-09T10:18:02.452Z,10.94
2019-03-09T10:20:31.665Z,10.98
2019-03-09T10:23:04.670Z,11.03
2019-03-09T10:25:31.743Z,11.19
2019-03-09T10:28:00.940Z,11.39
2019-03-09T10:30:30.134Z,11.68
2019-03-09T10:32:59.384Z,11.79
2019-03-09T10:35:28.690Z,12.11
2019-03-09T10:37:57.872Z,12.09
2019-03-09T10:40:27.082Z,11.83
2019-03-09T10:42:56.267Z,11.48
2019-03-09T10:45:25.471Z,11.32
2019-03-09T10:47:54.656Z,11.25
2019-03-09T10:50:25.905Z,11.39
2019-03-09T10:52:54.826Z,11.39
2019-03-09T10:55:34.099Z,11.24
2019-03-09T10:58:03.385Z,11.26
2019-03-09T11:00:37.047Z,11.50
2019-03-09T11:03:06.236Z,11.66
2019-03-09T11:05:35.443Z,11.63
2019-03-09T11:08:04.810Z,11.61
2019-03-09T11:10:34.019Z,11.71
2019-03-09T11:13:03.218Z,11.64
2019-03-09T11:15:32.414Z,11.61
2019-03-09T11:18:01.617Z,11.56
2019-03-09T11:20:30.812Z,11.50
2019-03-09T11:23:00.010Z,11.39
2019-03-09T11:25:29.231Z,11.31
2019-03-09T11:28:06.767Z,11.10
2019-03-09T11:30:35.962Z,11.03
2019-03-09T11:33:05.206Z,11.04
2019-03-09T11:35:34.421Z,11.00
2019-03-09T11:38:03.692Z,10.98
2019-03-09T11:40:32.912Z,10.96
2019-03-09T11:43:02.202Z,11.01
2019-03-09T11:45:31.408Z,11.11
2019-03-09T11:48:00.601Z,11.11
2019-03-09T11:50:29.818Z,11.17
2019-03-09T11:52:59.084Z,11.24
2019-03-09T11:55:28.286Z,11.29
2019-03-09T11:57:57.477Z,11.20
2019-03-09T12:00:34.354Z,11.13
2019-03-09T12:03:03.530Z,11.06
2019-03-09T12:05:32.748Z,10.94
2019-03-09T12:08:01.960Z,10.80
2019-03-09T12:10:31.168Z,10.91
2019-03-09T12:13:00.357Z,10.86
2019-03-09T12:15:29.566Z,11.09
2019-03-09T12:17:58.751Z,10.92
2019-03-09T12:20:29.601Z,10.97
2019-03-09T12:23:18.853Z,11.01
2019-03-09T12:25:48.046Z,10.97
2019-03-09T12:28:17.342Z,10.91
2019-03-09T12:30:46.564Z,10.94
2019-03-09T12:33:15.747Z,10.83
2019-03-09T12:35:45.062Z,10.75
2019-03-09T12:38:14.341Z,10.71
2019-03-09T12:40:43.556Z,10.55
2019-03-09T12:43:12.741Z,10.55
2019-03-09T12:45:41.948Z,10.48
2019-03-09T12:48:11.157Z,10.52
2019-03-09T12:50:40.319Z,10.52
2019-03-09T12:53:09.509Z,10.45
2019-03-09T12:55:38.727Z,10.50
2019-03-09T12:58:07.924Z,10.54
2019-03-09T13:00:37.122Z,10.53
2019-03-09T13:03:06.319Z,10.50
2019-03-09T13:05:35.539Z,10.60
2019-03-09T13:08:04.802Z,10.66
2019-03-09T13:10:34.017Z,10.67
2019-03-09T13:13:03.211Z,10.72
2019-03-09T13:15:32.515Z,10.83
2019-03-09T13:18:01.813Z,10.91
2019-03-09T13:20:31.014Z,10.90
2019-03-09T13:23:00.285Z,10.96
2019-03-09T13:25:29.493Z,10.82
2019-03-09T13:27:58.683Z,10.82
2019-03-09T13:30:27.902Z,10.81
2019-03-09T13:32:57.106Z,10.77
2019-03-09T13:35:26.401Z,10.85
2019-03-09T13:37:55.612Z,10.86
2019-03-09T13:40:24.798Z,10.83
2019-03-09T13:42:53.996Z,10.78
2019-03-09T13:45:23.166Z,10.72
2019-03-09T13:47:52.393Z,10.71
2019-03-09T13:50:21.568Z,10.72
2019-03-09T13:52:50.767Z,10.72
2019-03-09T13:55:19.946Z,10.72
2019-03-09T13:57:49.147Z,10.71
2019-03-09T14:00:21.311Z,10.71
2019-03-09T14:02:50.532Z,10.84
2019-03-09T14:05:19.741Z,11.06
2019-03-09T14:07:48.948Z,11.32
2019-03-09T14:10:18.224Z,11.56
2019-03-09T14:12:47.438Z,11.73
2019-03-09T14:15:19.389Z,11.79
2019-03-09T14:17:48.614Z,11.88
2019-03-09T14:20:17.769Z,11.82
2019-03-09T14:22:46.990Z,11.76
2019-03-09T14:25:16.165Z,11.72
2019-03-09T14:27:45.375Z,11.61
2019-03-09T14:30:18.421Z,11.51
2019-03-09T14:32:47.642Z,11.48
2019-03-09T14:35:16.869Z,11.47
2019-03-09T14:37:46.069Z,11.50
2019-03-09T14:40:15.993Z,11.56
2019-03-09T14:42:45.209Z,11.58
2019-03-09T14:45:18.673Z,11.68
2019-03-09T14:47:47.895Z,11.77
2019-03-09T14:50:18.702Z,11.84
2019-03-09T14:52:47.909Z,11.93
2019-03-09T14:55:17.193Z,11.91
2019-03-09T14:57:46.405Z,11.95
2019-03-09T15:00:24.026Z,11.91
2019-03-09T15:02:53.231Z,11.94
2019-03-09T15:05:22.430Z,12.00
2019-03-09T15:07:51.641Z,11.97
2019-03-09T15:10:20.850Z,11.91
2019-03-09T15:12:50.054Z,11.86
2019-03-09T15:15:20.976Z,11.88
2019-03-09T15:17:50.233Z,11.91
2019-03-09T15:20:19.408Z,11.86
2019-03-09T15:22:48.609Z,11.82
2019-03-09T15:25:19.611Z,11.85
2019-03-09T15:27:48.840Z,11.90
2019-03-09T15:30:20.314Z,11.97
2019-03-09T15:32:49.526Z,12.03
2019-03-09T15:35:18.718Z,11.98
2019-03-09T15:37:47.916Z,12.06
2019-03-09T15:40:19.110Z,12.10
2019-03-09T15:42:48.319Z,12.13
2019-03-09T15:45:19.613Z,12.15
2019-03-09T15:47:48.881Z,12.14
2019-03-09T15:50:19.409Z,12.07
2019-03-09T15:52:48.612Z,12.00
2019-03-09T15:55:17.817Z,11.99
2019-03-09T15:57:47.016Z,12.00
2019-03-09T16:00:19.919Z,11.97
2019-03-09T16:02:49.289Z,11.94
2019-03-09T16:05:18.476Z,11.88
2019-03-09T16:07:47.767Z,11.88
2019-03-09T16:10:21.271Z,11.86
2019-03-09T16:12:50.558Z,11.81
2019-03-09T16:15:19.740Z,11.79
2019-03-09T16:17:48.932Z,11.75
2019-03-09T16:20:29.121Z,11.75
2019-03-09T16:22:58.338Z,11.73
2019-03-09T16:25:29.013Z,11.68
2019-03-09T16:27:58.417Z,11.65
2019-03-09T16:30:27.640Z,11.59
2019-03-09T16:32:56.877Z,11.56
2019-03-09T16:35:26.374Z,11.51
2019-03-09T16:37:55.545Z,11.53
2019-03-09T16:40:27.409Z,11.48
2019-03-09T16:42:56.616Z,11.44
2019-03-09T16:45:25.819Z,11.48
2019-03-09T16:47:55.020Z,11.44
2019-03-09T16:50:24.296Z,11.44
2019-03-09T16:52:53.532Z,11.42
2019-03-09T16:55:22.717Z,11.39
2019-03-09T16:57:51.916Z,11.42
2019-03-09T17:00:23.315Z,11.42
2019-03-09T17:03:00.143Z,11.42
2019-03-09T17:05:29.337Z,11.40
2019-03-09T17:07:58.639Z,11.43
2019-03-09T17:10:27.825Z,11.34
2019-03-09T17:12:58.665Z,11.38
2019-03-09T17:15:27.867Z,11.32
2019-03-09T17:17:57.099Z,11.36
2019-03-09T17:20:26.291Z,11.34
2019-03-09T17:22:55.582Z,11.31
2019-03-09T17:25:24.801Z,11.32
2019-03-09T17:27:54.084Z,11.31
2019-03-09T17:30:23.261Z,11.29
2019-03-09T17:32:52.444Z,11.30
2019-03-09T17:35:21.755Z,11.31
2019-03-09T17:37:50.959Z,11.29
2019-03-09T17:40:20.230Z,11.30
2019-03-09T17:42:49.436Z,11.31
2019-03-09T17:45:22.928Z,11.29
2019-03-09T17:47:52.139Z,11.31
2019-03-09T17:50:21.333Z,11.30
2019-03-09T17:52:50.536Z,11.32
2019-03-09T17:55:19.727Z,11.29
2019-03-09T17:57:48.930Z,11.31
2019-03-09T18:00:23.732Z,11.31
2019-03-09T18:02:52.943Z,11.26
2019-03-09T18:05:22.145Z,11.37
2019-03-09T18:07:51.448Z,11.30
2019-03-09T18:10:26.668Z,11.22
2019-03-09T18:12:55.875Z,11.30
2019-03-09T18:15:25.058Z,11.35
2019-03-09T18:17:54.293Z,11.34
2019-03-09T18:20:23.494Z,11.29
2019-03-09T18:22:52.699Z,11.32
2019-03-09T18:25:21.958Z,11.35
2019-03-09T18:27:51.223Z,11.30
2019-03-09T18:30:20.464Z,11.36
2019-03-09T18:32:49.852Z,11.32
2019-03-09T18:35:19.056Z,11.29
2019-03-09T18:37:48.539Z,11.37
2019-03-09T18:40:17.917Z,11.33
2019-03-09T18:42:47.104Z,11.48
2019-03-09T18:45:18.596Z,11.49
2019-03-09T18:47:47.952Z,11.48
2019-03-09T18:50:17.145Z,11.42
2019-03-09T18:52:46.630Z,11.39
2019-03-09T18:55:15.823Z,11.40
2019-03-09T18:57:45.015Z,11.34
2019-03-09T19:00:19.627Z,11.38
2019-03-09T19:02:48.826Z,11.36
2019-03-09T19:05:18.061Z,11.35
2019-03-09T19:07:47.267Z,11.39
2019-03-09T19:10:17.990Z,11.33
2019-03-09T19:12:47.193Z,11.43
2019-03-09T19:15:17.649Z,11.37
2019-03-09T19:17:46.840Z,11.46
2019-03-09T19:20:17.093Z,11.48
2019-03-09T19:22:46.606Z,11.44
2019-03-09T19:25:16.080Z,11.39
2019-03-09T19:27:45.267Z,11.36
2019-03-09T19:30:18.959Z,11.38
2019-03-09T19:32:48.149Z,11.34
2019-03-09T19:35:17.362Z,11.34
2019-03-09T19:37:46.551Z,11.25
2019-03-09T19:40:19.414Z,11.21
2019-03-09T19:42:48.698Z,11.25
2019-03-09T19:45:22.545Z,11.28
2019-03-09T19:47:53.645Z,11.30
2019-03-09T19:50:26.924Z,11.21
2019-03-09T19:52:56.130Z,11.30
2019-03-09T19:55:25.359Z,11.19
2019-03-09T19:57:54.559Z,11.15
2019-03-09T20:00:23.758Z,11.11
2019-03-09T20:02:52.959Z,11.19
2019-03-09T20:05:22.178Z,11.33
2019-03-09T20:07:51.384Z,11.36
2019-03-09T20:10:22.781Z,11.36
2019-03-09T20:12:51.987Z,11.36
2019-03-09T20:15:21.347Z,11.32
2019-03-09T20:17:50.549Z,11.26
2019-03-09T20:20:19.996Z,11.31
2019-03-09T20:22:49.182Z,11.34
2019-03-09T20:25:18.411Z,11.34
2019-03-09T20:27:47.599Z,11.32
2019-03-09T20:30:17.660Z,11.28
2019-03-09T20:32:46.858Z,11.32
2019-03-09T20:35:16.120Z,11.33
2019-03-09T20:37:45.355Z,11.32
2019-03-09T20:40:18.170Z,11.31
2019-03-09T20:42:47.353Z,11.35
2019-03-09T20:45:18.654Z,11.34
2019-03-09T20:47:47.857Z,11.36
2019-03-09T20:50:18.635Z,11.34
2019-03-09T20:52:47.824Z,11.33
2019-03-09T20:55:17.053Z,11.32
2019-03-09T20:57:46.263Z,11.35
2019-03-09T21:00:17.019Z,11.37
2019-03-09T21:02:46.256Z,11.38
2019-03-09T21:05:15.463Z,11.37
2019-03-09T21:07:44.666Z,11.35
2019-03-09T21:10:19.000Z,11.39
2019-03-09T21:13:08.540Z,11.37
2019-03-09T21:15:37.739Z,11.35
2019-03-09T21:18:06.919Z,11.40
2019-03-09T21:20:36.147Z,11.36
2019-03-09T21:23:05.337Z,11.35
2019-03-09T21:25:34.552Z,11.41
2019-03-09T21:28:03.837Z,11.36
2019-03-09T21:30:33.065Z,11.40
2019-03-09T21:33:02.355Z,11.40
2019-03-09T21:35:31.557Z,11.40
2019-03-09T21:38:00.789Z,11.42
2019-03-09T21:40:30.003Z,11.45
2019-03-09T21:42:59.200Z,11.42
2019-03-09T21:45:28.401Z,11.46
2019-03-09T21:47:57.609Z,11.46
2019-03-09T21:50:26.907Z,11.49
2019-03-09T21:53:00.326Z,11.46
2019-03-09T21:55:29.547Z,11.43
2019-03-09T21:57:59.053Z,11.40
2019-03-09T22:00:28.259Z,11.48
2019-03-09T22:02:57.470Z,11.46
2019-03-09T22:05:26.716Z,11.43
2019-03-09T22:07:56.106Z,11.44
2019-03-09T22:10:27.069Z,11.43
2019-03-09T22:12:56.324Z,11.35
2019-03-09T22:15:25.534Z,11.33
2019-03-09T22:17:54.913Z,11.40
2019-03-09T22:20:24.219Z,11.41
2019-03-09T22:22:53.416Z,11.42
2019-03-09T22:25:22.627Z,11.39
2019-03-09T22:27:51.828Z,11.36
2019-03-09T22:30:22.292Z,11.31
2019-03-09T22:32:51.499Z,11.40
2019-03-09T22:35:20.702Z,11.44
2019-03-09T22:37:49.902Z,11.42
2019-03-09T22:40:19.965Z,11.40
2019-03-09T22:42:49.151Z,11.43
2019-03-09T22:45:18.369Z,11.38
2019-03-09T22:47:47.563Z,11.44
2019-03-09T22:50:22.670Z,11.35
2019-03-09T22:52:51.850Z,11.39
2019-03-09T22:55:21.042Z,11.42
2019-03-09T22:57:50.291Z,11.42
2019-03-09T23:00:27.620Z,11.40
2019-03-09T23:02:56.884Z,11.33
2019-03-09T23:05:26.074Z,11.43
2019-03-09T23:07:55.277Z,11.36
2019-03-09T23:10:25.916Z,11.41
2019-03-09T23:12:55.129Z,11.39
2019-03-09T23:15:24.407Z,11.42
2019-03-09T23:17:53.625Z,11.40
2019-03-09T23:20:22.909Z,11.35
2019-03-09T23:22:52.118Z,11.33
2019-03-09T23:25:21.404Z,11.26
2019-03-09T23:27:50.675Z,11.28
2019-03-09T23:30:21.852Z,11.28
2019-03-09T23:32:51.065Z,11.25
2019-03-09T23:35:20.959Z,11.27
2019-03-09T23:37:50.332Z,11.31
2019-03-09T23:40:20.377Z,11.29
2019-03-09T23:42:49.643Z,11.34
2019-03-09T23:45:22.170Z,11.29
2019-03-09T23:47:51.473Z,11.30
2019-03-09T23:50:20.678Z,11.25
2019-03-09T23:52:49.887Z,11.28
2019-03-09T23:55:22.568Z,11.31
2019-03-09T23:57:50.049Z,11.15
